sensor_id;sensor_type;location;lat;lon;timestamp;P1;durP1;ratioP1;P2;durP2;ratioP2
34102;SDS011;20381;54.498;18.206;2022-08-21T00:00:08;6.00;;;5.50;;
34102;SDS011;20381;54.498;18.206;2022-08-21T00:02:48;6.78;;;6.17;;
34102;SDS011;20381;54.498;18.206;2022-08-21T00:05:21;5.97;;;5.47;;
34102;SDS011;20381;54.498;18.206;2022-08-21T00:07:49;7.00;;;6.30;;
34102;SDS011;20381;54.498;18.206;2022-08-21T00:10:17;7.03;;;6.15;;
34102;SDS011;20381;54.498;18.206;2022-08-21T00:12:45;6.67;;;6.12;;
34102;SDS011;20381;54.498;18.206;2022-08-21T00:15:18;6.58;;;5.90;;
34102;SDS011;20381;54.498;18.206;2022-08-21T00:17:44;7.95;;;7.00;;
34102;SDS011;20381;54.498;18.206;2022-08-21T00:20:11;6.70;;;6.12;;
34102;SDS011;20381;54.498;18.206;2022-08-21T00:22:41;7.25;;;6.53;;
34102;SDS011;20381;54.498;18.206;2022-08-21T00:25:08;7.87;;;7.17;;
34102;SDS011;20381;54.498;18.206;2022-08-21T00:27:36;7.72;;;6.92;;
34102;SDS011;20381;54.498;18.206;2022-08-21T00:30:05;7.15;;;6.55;;
34102;SDS011;20381;54.498;18.206;2022-08-21T00:32:33;6.97;;;6.37;;
34102;SDS011;20381;54.498;18.206;2022-08-21T00:35:03;9.25;;;6.62;;
34102;SDS011;20381;54.498;18.206;2022-08-21T00:37:33;8.10;;;6.78;;
34102;SDS011;20381;54.498;18.206;2022-08-21T00:40:00;7.62;;;6.95;;
34102;SDS011;20381;54.498;18.206;2022-08-21T00:42:28;8.00;;;7.22;;
34102;SDS011;20381;54.498;18.206;2022-08-21T00:44:55;7.95;;;7.15;;
34102;SDS011;20381;54.498;18.206;2022-08-21T00:47:22;8.18;;;7.33;;
34102;SDS011;20381;54.498;18.206;2022-08-21T00:49:49;10.05;;;8.10;;
34102;SDS011;20381;54.498;18.206;2022-08-21T00:52:17;8.05;;;7.30;;
34102;SDS011;20381;54.498;18.206;2022-08-21T00:54:48;8.23;;;7.53;;
34102;SDS011;20381;54.498;18.206;2022-08-21T00:57:17;7.83;;;7.03;;
34102;SDS011;20381;54.498;18.206;2022-08-21T00:59:54;8.93;;;7.90;;
34102;SDS011;20381;54.498;18.206;2022-08-21T01:02:24;8.40;;;7.53;;
34102;SDS011;20381;54.498;18.206;2022-08-21T01:04:51;8.48;;;7.72;;
34102;SDS011;20381;54.498;18.206;2022-08-21T01:07:18;9.53;;;7.65;;
34102;SDS011;20381;54.498;18.206;2022-08-21T01:12:13;7.90;;;7.10;;
34102;SDS011;20381;54.498;18.206;2022-08-21T01:14:40;9.15;;;8.33;;
34102;SDS011;20381;54.498;18.206;2022-08-21T01:17:08;8.63;;;7.03;;
34102;SDS011;20381;54.498;18.206;2022-08-21T01:19:37;8.98;;;8.08;;
34102;SDS011;20381;54.498;18.206;2022-08-21T01:22:04;8.90;;;8.00;;
34102;SDS011;20381;54.498;18.206;2022-08-21T01:24:32;8.33;;;7.53;;
34102;SDS011;20381;54.498;18.206;2022-08-21T01:26:59;7.97;;;7.15;;
34102;SDS011;20381;54.498;18.206;2022-08-21T01:32:10;8.35;;;7.65;;
34102;SDS011;20381;54.498;18.206;2022-08-21T01:34:41;9.05;;;8.25;;
34102;SDS011;20381;54.498;18.206;2022-08-21T01:37:10;8.58;;;7.58;;
34102;SDS011;20381;54.498;18.206;2022-08-21T01:39:38;8.70;;;7.90;;
34102;SDS011;20381;54.498;18.206;2022-08-21T01:42:06;10.60;;;7.55;;
34102;SDS011;20381;54.498;18.206;2022-08-21T01:47:02;7.42;;;6.53;;
34102;SDS011;20381;54.498;18.206;2022-08-21T01:49:31;7.53;;;6.72;;
34102;SDS011;20381;54.498;18.206;2022-08-21T01:51:58;9.93;;;6.75;;
34102;SDS011;20381;54.498;18.206;2022-08-21T01:54:25;7.90;;;6.47;;
34102;SDS011;20381;54.498;18.206;2022-08-21T01:56:52;9.95;;;6.40;;
34102;SDS011;20381;54.498;18.206;2022-08-21T01:59:20;7.42;;;6.20;;
34102;SDS011;20381;54.498;18.206;2022-08-21T02:01:49;11.78;;;7.15;;
34102;SDS011;20381;54.498;18.206;2022-08-21T02:04:16;7.70;;;6.95;;
34102;SDS011;20381;54.498;18.206;2022-08-21T02:06:43;7.50;;;6.80;;
34102;SDS011;20381;54.498;18.206;2022-08-21T02:09:10;8.00;;;6.87;;
34102;SDS011;20381;54.498;18.206;2022-08-21T02:11:38;6.90;;;6.30;;
34102;SDS011;20381;54.498;18.206;2022-08-21T02:14:08;7.72;;;6.92;;
34102;SDS011;20381;54.498;18.206;2022-08-21T02:16:38;8.55;;;6.45;;
34102;SDS011;20381;54.498;18.206;2022-08-21T02:19:05;8.05;;;6.90;;
34102;SDS011;20381;54.498;18.206;2022-08-21T02:21:32;8.80;;;6.80;;
34102;SDS011;20381;54.498;18.206;2022-08-21T02:23:59;12.40;;;7.15;;
34102;SDS011;20381;54.498;18.206;2022-08-21T02:26:26;7.83;;;7.03;;
34102;SDS011;20381;54.498;18.206;2022-08-21T02:28:52;7.92;;;7.10;;
34102;SDS011;20381;54.498;18.206;2022-08-21T02:31:19;9.30;;;7.12;;
34102;SDS011;20381;54.498;18.206;2022-08-21T02:33:46;8.75;;;7.30;;
34102;SDS011;20381;54.498;18.206;2022-08-21T02:36:13;7.47;;;6.83;;
34102;SDS011;20381;54.498;18.206;2022-08-21T02:38:40;7.33;;;6.35;;
34102;SDS011;20381;54.498;18.206;2022-08-21T02:41:13;11.03;;;7.58;;
34102;SDS011;20381;54.498;18.206;2022-08-21T02:43:40;9.33;;;7.40;;
34102;SDS011;20381;54.498;18.206;2022-08-21T02:46:08;9.25;;;7.83;;
34102;SDS011;20381;54.498;18.206;2022-08-21T02:48:36;8.90;;;8.00;;
34102;SDS011;20381;54.498;18.206;2022-08-21T02:51:05;8.63;;;7.55;;
34102;SDS011;20381;54.498;18.206;2022-08-21T02:53:37;9.15;;;7.97;;
34102;SDS011;20381;54.498;18.206;2022-08-21T02:56:07;8.45;;;7.40;;
34102;SDS011;20381;54.498;18.206;2022-08-21T02:58:37;10.48;;;8.48;;
34102;SDS011;20381;54.498;18.206;2022-08-21T03:01:07;10.75;;;8.30;;
34102;SDS011;20381;54.498;18.206;2022-08-21T03:03:35;12.78;;;8.33;;
34102;SDS011;20381;54.498;18.206;2022-08-21T03:06:04;9.30;;;8.38;;
34102;SDS011;20381;54.498;18.206;2022-08-21T03:08:33;9.83;;;8.35;;
34102;SDS011;20381;54.498;18.206;2022-08-21T03:11:00;9.95;;;7.87;;
34102;SDS011;20381;54.498;18.206;2022-08-21T03:13:28;9.50;;;7.45;;
34102;SDS011;20381;54.498;18.206;2022-08-21T03:15:55;19.62;;;7.78;;
34102;SDS011;20381;54.498;18.206;2022-08-21T03:18:22;11.22;;;7.55;;
34102;SDS011;20381;54.498;18.206;2022-08-21T03:20:49;8.83;;;7.10;;
34102;SDS011;20381;54.498;18.206;2022-08-21T03:23:16;8.38;;;7.30;;
34102;SDS011;20381;54.498;18.206;2022-08-21T03:25:44;8.50;;;6.83;;
34102;SDS011;20381;54.498;18.206;2022-08-21T03:28:13;10.53;;;7.87;;
34102;SDS011;20381;54.498;18.206;2022-08-21T03:30:45;8.03;;;7.33;;
34102;SDS011;20381;54.498;18.206;2022-08-21T03:33:14;8.28;;;7.47;;
34102;SDS011;20381;54.498;18.206;2022-08-21T03:35:42;7.97;;;7.17;;
34102;SDS011;20381;54.498;18.206;2022-08-21T03:38:11;8.50;;;6.78;;
34102;SDS011;20381;54.498;18.206;2022-08-21T03:40:39;7.33;;;6.20;;
34102;SDS011;20381;54.498;18.206;2022-08-21T03:43:10;8.53;;;6.05;;
34102;SDS011;20381;54.498;18.206;2022-08-21T03:45:37;6.35;;;5.75;;
34102;SDS011;20381;54.498;18.206;2022-08-21T03:48:05;6.58;;;5.47;;
34102;SDS011;20381;54.498;18.206;2022-08-21T03:50:34;5.85;;;5.17;;
34102;SDS011;20381;54.498;18.206;2022-08-21T03:53:04;5.80;;;5.20;;
34102;SDS011;20381;54.498;18.206;2022-08-21T03:55:31;5.67;;;5.17;;
34102;SDS011;20381;54.498;18.206;2022-08-21T03:57:58;5.33;;;4.83;;
34102;SDS011;20381;54.498;18.206;2022-08-21T04:00:25;5.50;;;5.00;;
34102;SDS011;20381;54.498;18.206;2022-08-21T04:02:52;5.30;;;4.80;;
34102;SDS011;20381;54.498;18.206;2022-08-21T04:05:19;6.00;;;4.72;;
34102;SDS011;20381;54.498;18.206;2022-08-21T04:07:56;4.55;;;4.15;;
34102;SDS011;20381;54.498;18.206;2022-08-21T04:10:26;5.25;;;4.75;;
34102;SDS011;20381;54.498;18.206;2022-08-21T04:12:54;8.00;;;5.30;;
34102;SDS011;20381;54.498;18.206;2022-08-21T04:15:21;5.15;;;4.65;;
34102;SDS011;20381;54.498;18.206;2022-08-21T04:17:50;5.00;;;4.50;;
34102;SDS011;20381;54.498;18.206;2022-08-21T04:22:44;4.95;;;4.50;;
34102;SDS011;20381;54.498;18.206;2022-08-21T04:27:39;7.20;;;5.70;;
34102;SDS011;20381;54.498;18.206;2022-08-21T04:30:07;6.60;;;5.40;;
34102;SDS011;20381;54.498;18.206;2022-08-21T04:32:35;6.28;;;5.55;;
34102;SDS011;20381;54.498;18.206;2022-08-21T04:35:05;6.10;;;5.55;;
34102;SDS011;20381;54.498;18.206;2022-08-21T04:37:35;6.97;;;5.53;;
34102;SDS011;20381;54.498;18.206;2022-08-21T04:40:03;6.25;;;5.65;;
34102;SDS011;20381;54.498;18.206;2022-08-21T04:42:32;6.42;;;5.83;;
34102;SDS011;20381;54.498;18.206;2022-08-21T04:44:59;8.28;;;5.60;;
34102;SDS011;20381;54.498;18.206;2022-08-21T04:47:25;6.37;;;5.78;;
34102;SDS011;20381;54.498;18.206;2022-08-21T04:49:52;6.03;;;5.45;;
34102;SDS011;20381;54.498;18.206;2022-08-21T04:52:20;6.12;;;5.22;;
34102;SDS011;20381;54.498;18.206;2022-08-21T04:54:48;6.15;;;5.55;;
34102;SDS011;20381;54.498;18.206;2022-08-21T04:57:18;7.37;;;5.33;;
34102;SDS011;20381;54.498;18.206;2022-08-21T04:59:46;7.03;;;5.45;;
34102;SDS011;20381;54.498;18.206;2022-08-21T05:02:16;6.65;;;5.97;;
34102;SDS011;20381;54.498;18.206;2022-08-21T05:04:45;7.28;;;6.50;;
34102;SDS011;20381;54.498;18.206;2022-08-21T05:07:22;6.17;;;5.60;;
34102;SDS011;20381;54.498;18.206;2022-08-21T05:09:51;6.72;;;6.12;;
34102;SDS011;20381;54.498;18.206;2022-08-21T05:12:19;7.37;;;6.67;;
34102;SDS011;20381;54.498;18.206;2022-08-21T05:14:47;6.60;;;6.00;;
34102;SDS011;20381;54.498;18.206;2022-08-21T05:17:14;6.40;;;5.65;;
34102;SDS011;20381;54.498;18.206;2022-08-21T05:19:40;5.72;;;5.25;;
34102;SDS011;20381;54.498;18.206;2022-08-21T05:22:07;5.72;;;5.22;;
34102;SDS011;20381;54.498;18.206;2022-08-21T05:24:34;5.08;;;4.58;;
34102;SDS011;20381;54.498;18.206;2022-08-21T05:27:01;4.60;;;4.20;;
34102;SDS011;20381;54.498;18.206;2022-08-21T05:29:29;4.10;;;3.70;;
34102;SDS011;20381;54.498;18.206;2022-08-21T05:31:56;4.72;;;3.77;;
34102;SDS011;20381;54.498;18.206;2022-08-21T05:34:23;4.45;;;3.80;;
34102;SDS011;20381;54.498;18.206;2022-08-21T05:36:50;7.70;;;3.33;;
34102;SDS011;20381;54.498;18.206;2022-08-21T05:39:17;3.80;;;3.50;;
34102;SDS011;20381;54.498;18.206;2022-08-21T05:41:44;4.37;;;3.50;;
34102;SDS011;20381;54.498;18.206;2022-08-21T05:44:11;4.03;;;3.42;;
34102;SDS011;20381;54.498;18.206;2022-08-21T05:46:37;4.67;;;3.67;;
34102;SDS011;20381;54.498;18.206;2022-08-21T05:49:04;3.40;;;3.10;;
34102;SDS011;20381;54.498;18.206;2022-08-21T05:51:31;3.47;;;3.17;;
34102;SDS011;20381;54.498;18.206;2022-08-21T05:53:58;4.35;;;3.30;;
34102;SDS011;20381;54.498;18.206;2022-08-21T05:56:24;3.98;;;3.65;;
34102;SDS011;20381;54.498;18.206;2022-08-21T05:58:51;5.10;;;4.15;;
34102;SDS011;20381;54.498;18.206;2022-08-21T06:01:18;4.65;;;4.10;;
34102;SDS011;20381;54.498;18.206;2022-08-21T06:03:45;5.40;;;4.58;;
34102;SDS011;20381;54.498;18.206;2022-08-21T06:06:11;4.28;;;3.87;;
34102;SDS011;20381;54.498;18.206;2022-08-21T06:08:38;3.92;;;3.58;;
34102;SDS011;20381;54.498;18.206;2022-08-21T06:11:05;4.42;;;3.77;;
34102;SDS011;20381;54.498;18.206;2022-08-21T06:13:33;6.35;;;4.50;;
34102;SDS011;20381;54.498;18.206;2022-08-21T06:16:02;5.55;;;4.40;;
34102;SDS011;20381;54.498;18.206;2022-08-21T06:18:33;5.78;;;4.10;;
34102;SDS011;20381;54.498;18.206;2022-08-21T06:21:02;4.97;;;3.50;;
34102;SDS011;20381;54.498;18.206;2022-08-21T06:23:29;7.65;;;4.30;;
34102;SDS011;20381;54.498;18.206;2022-08-21T06:25:56;4.42;;;3.50;;
34102;SDS011;20381;54.498;18.206;2022-08-21T06:28:23;5.47;;;3.90;;
34102;SDS011;20381;54.498;18.206;2022-08-21T06:30:50;4.70;;;4.20;;
34102;SDS011;20381;54.498;18.206;2022-08-21T06:33:17;5.37;;;4.15;;
34102;SDS011;20381;54.498;18.206;2022-08-21T06:35:44;3.83;;;3.37;;
34102;SDS011;20381;54.498;18.206;2022-08-21T06:38:10;4.70;;;3.70;;
34102;SDS011;20381;54.498;18.206;2022-08-21T06:40:37;6.17;;;3.80;;
34102;SDS011;20381;54.498;18.206;2022-08-21T06:45:36;5.42;;;3.85;;
34102;SDS011;20381;54.498;18.206;2022-08-21T06:48:04;8.13;;;3.95;;
34102;SDS011;20381;54.498;18.206;2022-08-21T06:50:32;3.77;;;3.12;;
34102;SDS011;20381;54.498;18.206;2022-08-21T06:53:00;4.85;;;3.50;;
34102;SDS011;20381;54.498;18.206;2022-08-21T06:55:30;5.10;;;3.50;;
34102;SDS011;20381;54.498;18.206;2022-08-21T06:57:59;4.35;;;3.65;;
34102;SDS011;20381;54.498;18.206;2022-08-21T07:02:52;5.58;;;3.25;;
34102;SDS011;20381;54.498;18.206;2022-08-21T07:05:19;4.55;;;3.30;;
34102;SDS011;20381;54.498;18.206;2022-08-21T07:07:47;6.58;;;3.55;;
34102;SDS011;20381;54.498;18.206;2022-08-21T07:10:14;4.20;;;3.12;;
34102;SDS011;20381;54.498;18.206;2022-08-21T07:12:41;9.28;;;3.25;;
34102;SDS011;20381;54.498;18.206;2022-08-21T07:15:08;3.55;;;2.83;;
34102;SDS011;20381;54.498;18.206;2022-08-21T07:17:36;5.37;;;3.37;;
34102;SDS011;20381;54.498;18.206;2022-08-21T07:20:03;4.72;;;3.10;;
34102;SDS011;20381;54.498;18.206;2022-08-21T07:22:32;3.05;;;2.40;;
34102;SDS011;20381;54.498;18.206;2022-08-21T07:25:08;2.95;;;2.45;;
34102;SDS011;20381;54.498;18.206;2022-08-21T07:27:34;4.65;;;3.12;;
34102;SDS011;20381;54.498;18.206;2022-08-21T07:30:01;3.33;;;2.55;;
34102;SDS011;20381;54.498;18.206;2022-08-21T07:32:31;6.75;;;2.50;;
34102;SDS011;20381;54.498;18.206;2022-08-21T07:34:59;5.83;;;2.85;;
34102;SDS011;20381;54.498;18.206;2022-08-21T07:37:26;3.50;;;2.70;;
34102;SDS011;20381;54.498;18.206;2022-08-21T07:39:53;4.90;;;2.95;;
34102;SDS011;20381;54.498;18.206;2022-08-21T07:42:20;4.15;;;2.85;;
34102;SDS011;20381;54.498;18.206;2022-08-21T07:44:47;3.05;;;2.70;;
34102;SDS011;20381;54.498;18.206;2022-08-21T07:47:14;3.05;;;2.47;;
34102;SDS011;20381;54.498;18.206;2022-08-21T07:49:41;3.80;;;2.50;;
34102;SDS011;20381;54.498;18.206;2022-08-21T07:52:07;4.15;;;2.45;;
34102;SDS011;20381;54.498;18.206;2022-08-21T07:54:34;4.25;;;2.70;;
34102;SDS011;20381;54.498;18.206;2022-08-21T07:57:01;6.20;;;2.52;;
34102;SDS011;20381;54.498;18.206;2022-08-21T07:59:29;5.78;;;2.70;;
34102;SDS011;20381;54.498;18.206;2022-08-21T08:02:00;4.95;;;2.92;;
34102;SDS011;20381;54.498;18.206;2022-08-21T08:04:31;5.60;;;2.83;;
34102;SDS011;20381;54.498;18.206;2022-08-21T08:07:01;3.95;;;2.30;;
34102;SDS011;20381;54.498;18.206;2022-08-21T08:09:28;5.25;;;2.70;;
34102;SDS011;20381;54.498;18.206;2022-08-21T08:11:55;8.30;;;2.72;;
34102;SDS011;20381;54.498;18.206;2022-08-21T08:14:22;4.72;;;2.87;;
34102;SDS011;20381;54.498;18.206;2022-08-21T08:16:49;5.28;;;2.58;;
34102;SDS011;20381;54.498;18.206;2022-08-21T08:19:16;4.45;;;2.20;;
34102;SDS011;20381;54.498;18.206;2022-08-21T08:21:43;3.83;;;2.62;;
34102;SDS011;20381;54.498;18.206;2022-08-21T08:24:09;4.87;;;2.85;;
34102;SDS011;20381;54.498;18.206;2022-08-21T08:26:36;5.65;;;2.40;;
34102;SDS011;20381;54.498;18.206;2022-08-21T08:29:03;3.58;;;2.25;;
34102;SDS011;20381;54.498;18.206;2022-08-21T08:31:30;3.15;;;2.02;;
34102;SDS011;20381;54.498;18.206;2022-08-21T08:33:56;3.98;;;2.50;;
34102;SDS011;20381;54.498;18.206;2022-08-21T08:36:30;7.40;;;2.83;;
34102;SDS011;20381;54.498;18.206;2022-08-21T08:39:02;3.80;;;2.37;;
34102;SDS011;20381;54.498;18.206;2022-08-21T08:41:30;4.35;;;2.75;;
34102;SDS011;20381;54.498;18.206;2022-08-21T08:43:59;3.95;;;2.50;;
34102;SDS011;20381;54.498;18.206;2022-08-21T08:46:40;4.42;;;2.55;;
34102;SDS011;20381;54.498;18.206;2022-08-21T08:49:24;6.53;;;3.12;;
34102;SDS011;20381;54.498;18.206;2022-08-21T08:57:03;4.50;;;2.72;;
34102;SDS011;20381;54.498;18.206;2022-08-21T08:59:38;3.80;;;2.20;;
34102;SDS011;20381;54.498;18.206;2022-08-21T09:02:09;4.00;;;2.83;;
34102;SDS011;20381;54.498;18.206;2022-08-21T09:04:37;3.45;;;2.52;;
34102;SDS011;20381;54.498;18.206;2022-08-21T09:07:10;3.85;;;2.60;;
34102;SDS011;20381;54.498;18.206;2022-08-21T09:16:00;3.33;;;2.65;;
34102;SDS011;20381;54.498;18.206;2022-08-21T09:18:52;4.78;;;3.27;;
34102;SDS011;20381;54.498;18.206;2022-08-21T09:29:46;3.17;;;2.65;;
34102;SDS011;20381;54.498;18.206;2022-08-21T09:40:45;6.17;;;2.98;;
34102;SDS011;20381;54.498;18.206;2022-08-21T09:45:43;4.05;;;2.75;;
34102;SDS011;20381;54.498;18.206;2022-08-21T09:48:13;4.62;;;2.45;;
34102;SDS011;20381;54.498;18.206;2022-08-21T09:50:46;3.72;;;2.92;;
34102;SDS011;20381;54.498;18.206;2022-08-21T09:53:25;4.10;;;2.10;;
34102;SDS011;20381;54.498;18.206;2022-08-21T09:55:54;6.42;;;2.50;;
34102;SDS011;20381;54.498;18.206;2022-08-21T09:58:46;5.17;;;2.50;;
34102;SDS011;20381;54.498;18.206;2022-08-21T10:01:23;4.80;;;2.52;;
34102;SDS011;20381;54.498;18.206;2022-08-21T10:04:02;7.58;;;2.27;;
34102;SDS011;20381;54.498;18.206;2022-08-21T10:06:36;2.90;;;1.85;;
34102;SDS011;20381;54.498;18.206;2022-08-21T10:11:39;3.58;;;2.40;;
34102;SDS011;20381;54.498;18.206;2022-08-21T10:14:28;6.72;;;2.77;;
34102;SDS011;20381;54.498;18.206;2022-08-21T10:20:07;4.30;;;2.17;;
34102;SDS011;20381;54.498;18.206;2022-08-21T10:25:45;4.30;;;2.15;;
34102;SDS011;20381;54.498;18.206;2022-08-21T10:28:23;6.08;;;2.65;;
34102;SDS011;20381;54.498;18.206;2022-08-21T10:36:37;3.90;;;2.65;;
34102;SDS011;20381;54.498;18.206;2022-08-21T10:39:27;4.85;;;2.70;;
34102;SDS011;20381;54.498;18.206;2022-08-21T10:45:15;5.30;;;2.27;;
34102;SDS011;20381;54.498;18.206;2022-08-21T10:48:05;4.22;;;2.20;;
34102;SDS011;20381;54.498;18.206;2022-08-21T10:50:39;5.20;;;2.52;;
34102;SDS011;20381;54.498;18.206;2022-08-21T10:53:29;3.60;;;2.02;;
34102;SDS011;20381;54.498;18.206;2022-08-21T10:55:57;3.35;;;1.50;;
34102;SDS011;20381;54.498;18.206;2022-08-21T10:58:36;2.37;;;1.40;;
34102;SDS011;20381;54.498;18.206;2022-08-21T11:01:23;1.47;;;1.17;;
34102;SDS011;20381;54.498;18.206;2022-08-21T11:07:03;3.10;;;2.00;;
34102;SDS011;20381;54.498;18.206;2022-08-21T11:09:40;5.25;;;1.72;;
34102;SDS011;20381;54.498;18.206;2022-08-21T11:18:23;4.25;;;1.85;;
34102;SDS011;20381;54.498;18.206;2022-08-21T11:21:05;3.62;;;1.85;;
34102;SDS011;20381;54.498;18.206;2022-08-21T11:27:17;3.22;;;1.55;;
34102;SDS011;20381;54.498;18.206;2022-08-21T11:29:55;5.05;;;1.27;;
34102;SDS011;20381;54.498;18.206;2022-08-21T11:32:46;3.15;;;1.10;;
34102;SDS011;20381;54.498;18.206;2022-08-21T11:38:27;3.50;;;1.40;;
34102;SDS011;20381;54.498;18.206;2022-08-21T11:47:04;4.67;;;1.90;;
34102;SDS011;20381;54.498;18.206;2022-08-21T11:50:00;2.15;;;1.25;;
34102;SDS011;20381;54.498;18.206;2022-08-21T11:52:51;5.35;;;1.98;;
34102;SDS011;20381;54.498;18.206;2022-08-21T11:55:28;3.47;;;1.25;;
34102;SDS011;20381;54.498;18.206;2022-08-21T11:58:17;2.80;;;1.30;;
34102;SDS011;20381;54.498;18.206;2022-08-21T12:01:01;3.52;;;1.55;;
34102;SDS011;20381;54.498;18.206;2022-08-21T12:06:07;4.28;;;1.62;;
34102;SDS011;20381;54.498;18.206;2022-08-21T12:08:38;5.15;;;1.62;;
34102;SDS011;20381;54.498;18.206;2022-08-21T12:13:59;6.72;;;1.70;;
34102;SDS011;20381;54.498;18.206;2022-08-21T12:16:31;5.03;;;1.77;;
34102;SDS011;20381;54.498;18.206;2022-08-21T12:19:02;4.28;;;1.80;;
34102;SDS011;20381;54.498;18.206;2022-08-21T12:21:32;4.42;;;1.57;;
34102;SDS011;20381;54.498;18.206;2022-08-21T12:29:55;5.05;;;2.12;;
34102;SDS011;20381;54.498;18.206;2022-08-21T12:32:53;5.47;;;1.57;;
34102;SDS011;20381;54.498;18.206;2022-08-21T12:35:25;5.55;;;1.90;;
34102;SDS011;20381;54.498;18.206;2022-08-21T12:38:12;2.87;;;1.35;;
34102;SDS011;20381;54.498;18.206;2022-08-21T12:43:30;3.55;;;2.00;;
34102;SDS011;20381;54.498;18.206;2022-08-21T12:45:57;4.20;;;1.60;;
34102;SDS011;20381;54.498;18.206;2022-08-21T12:48:41;5.15;;;1.82;;
34102;SDS011;20381;54.498;18.206;2022-08-21T12:51:23;5.28;;;1.70;;
34102;SDS011;20381;54.498;18.206;2022-08-21T12:53:53;7.25;;;2.98;;
34102;SDS011;20381;54.498;18.206;2022-08-21T12:56:28;4.03;;;1.60;;
34102;SDS011;20381;54.498;18.206;2022-08-21T12:59:01;6.15;;;1.87;;
34102;SDS011;20381;54.498;18.206;2022-08-21T13:01:49;3.83;;;1.62;;
34102;SDS011;20381;54.498;18.206;2022-08-21T13:04:13;6.30;;;1.82;;
34102;SDS011;20381;54.498;18.206;2022-08-21T13:06:44;3.33;;;1.60;;
34102;SDS011;20381;54.498;18.206;2022-08-21T13:09:17;3.35;;;1.62;;
34102;SDS011;20381;54.498;18.206;2022-08-21T13:11:48;5.58;;;1.22;;
34102;SDS011;20381;54.498;18.206;2022-08-21T13:14:24;2.52;;;1.47;;
34102;SDS011;20381;54.498;18.206;2022-08-21T13:16:59;2.83;;;1.30;;
34102;SDS011;20381;54.498;18.206;2022-08-21T13:19:28;3.27;;;1.20;;
34102;SDS011;20381;54.498;18.206;2022-08-21T13:21:57;4.45;;;1.70;;
34102;SDS011;20381;54.498;18.206;2022-08-21T13:24:26;6.05;;;1.60;;
34102;SDS011;20381;54.498;18.206;2022-08-21T13:27:14;5.00;;;1.72;;
34102;SDS011;20381;54.498;18.206;2022-08-21T13:32:38;6.28;;;2.05;;
34102;SDS011;20381;54.498;18.206;2022-08-21T13:35:12;5.47;;;2.20;;
34102;SDS011;20381;54.498;18.206;2022-08-21T13:37:52;4.40;;;2.02;;
34102;SDS011;20381;54.498;18.206;2022-08-21T13:40:26;3.50;;;1.55;;
34102;SDS011;20381;54.498;18.206;2022-08-21T13:42:59;4.10;;;1.62;;
34102;SDS011;20381;54.498;18.206;2022-08-21T13:45:29;7.37;;;1.75;;
34102;SDS011;20381;54.498;18.206;2022-08-21T13:48:02;5.30;;;1.70;;
34102;SDS011;20381;54.498;18.206;2022-08-21T13:50:31;5.55;;;2.10;;
34102;SDS011;20381;54.498;18.206;2022-08-21T13:53:03;6.80;;;1.65;;
34102;SDS011;20381;54.498;18.206;2022-08-21T13:55:37;3.47;;;1.72;;
34102;SDS011;20381;54.498;18.206;2022-08-21T13:58:09;5.62;;;1.40;;
34102;SDS011;20381;54.498;18.206;2022-08-21T14:00:47;4.78;;;1.72;;
34102;SDS011;20381;54.498;18.206;2022-08-21T14:06:12;7.45;;;1.87;;
34102;SDS011;20381;54.498;18.206;2022-08-21T14:08:49;4.80;;;1.57;;
34102;SDS011;20381;54.498;18.206;2022-08-21T14:11:23;5.22;;;1.12;;
34102;SDS011;20381;54.498;18.206;2022-08-21T14:13:57;4.53;;;1.45;;
34102;SDS011;20381;54.498;18.206;2022-08-21T14:17:12;2.75;;;1.22;;
34102;SDS011;20381;54.498;18.206;2022-08-21T14:19:17;4.60;;;1.30;;
34102;SDS011;20381;54.498;18.206;2022-08-21T14:27:36;7.17;;;1.55;;
34102;SDS011;20381;54.498;18.206;2022-08-21T14:30:10;8.53;;;1.50;;
34102;SDS011;20381;54.498;18.206;2022-08-21T14:32:59;4.80;;;1.70;;
34102;SDS011;20381;54.498;18.206;2022-08-21T14:35:27;4.20;;;1.70;;
34102;SDS011;20381;54.498;18.206;2022-08-21T14:37:55;7.65;;;2.08;;
34102;SDS011;20381;54.498;18.206;2022-08-21T14:40:25;5.47;;;1.67;;
34102;SDS011;20381;54.498;18.206;2022-08-21T14:42:52;5.40;;;1.35;;
34102;SDS011;20381;54.498;18.206;2022-08-21T14:45:27;6.03;;;1.90;;
34102;SDS011;20381;54.498;18.206;2022-08-21T14:47:56;7.17;;;1.70;;
34102;SDS011;20381;54.498;18.206;2022-08-21T14:50:24;5.17;;;1.50;;
34102;SDS011;20381;54.498;18.206;2022-08-21T14:55:18;6.05;;;1.90;;
34102;SDS011;20381;54.498;18.206;2022-08-21T14:57:46;5.03;;;1.35;;
34102;SDS011;20381;54.498;18.206;2022-08-21T15:00:19;6.12;;;1.47;;
34102;SDS011;20381;54.498;18.206;2022-08-21T15:02:50;4.92;;;1.70;;
34102;SDS011;20381;54.498;18.206;2022-08-21T15:05:18;3.30;;;1.15;;
34102;SDS011;20381;54.498;18.206;2022-08-21T15:07:45;5.58;;;1.17;;
34102;SDS011;20381;54.498;18.206;2022-08-21T15:10:12;2.77;;;1.20;;
34102;SDS011;20381;54.498;18.206;2022-08-21T15:12:39;3.62;;;1.30;;
34102;SDS011;20381;54.498;18.206;2022-08-21T15:15:06;2.20;;;1.02;;
34102;SDS011;20381;54.498;18.206;2022-08-21T15:17:34;5.75;;;1.75;;
34102;SDS011;20381;54.498;18.206;2022-08-21T15:20:01;5.70;;;1.40;;
34102;SDS011;20381;54.498;18.206;2022-08-21T15:22:30;3.87;;;1.42;;
34102;SDS011;20381;54.498;18.206;2022-08-21T15:24:57;5.22;;;1.47;;
34102;SDS011;20381;54.498;18.206;2022-08-21T15:27:24;6.25;;;1.50;;
34102;SDS011;20381;54.498;18.206;2022-08-21T15:29:50;4.78;;;1.55;;
34102;SDS011;20381;54.498;18.206;2022-08-21T15:32:27;2.20;;;0.98;;
34102;SDS011;20381;54.498;18.206;2022-08-21T15:34:53;7.37;;;1.92;;
34102;SDS011;20381;54.498;18.206;2022-08-21T15:37:21;2.40;;;1.17;;
34102;SDS011;20381;54.498;18.206;2022-08-21T15:39:49;3.83;;;1.45;;
34102;SDS011;20381;54.498;18.206;2022-08-21T15:42:19;6.40;;;1.57;;
34102;SDS011;20381;54.498;18.206;2022-08-21T15:44:49;2.52;;;1.22;;
34102;SDS011;20381;54.498;18.206;2022-08-21T15:47:21;6.10;;;1.47;;
34102;SDS011;20381;54.498;18.206;2022-08-21T15:49:50;6.67;;;1.37;;
34102;SDS011;20381;54.498;18.206;2022-08-21T15:52:18;3.85;;;1.02;;
34102;SDS011;20381;54.498;18.206;2022-08-21T15:54:46;5.00;;;1.77;;
34102;SDS011;20381;54.498;18.206;2022-08-21T15:57:15;3.47;;;1.40;;
34102;SDS011;20381;54.498;18.206;2022-08-21T15:59:45;4.22;;;1.60;;
34102;SDS011;20381;54.498;18.206;2022-08-21T16:02:25;4.70;;;1.55;;
34102;SDS011;20381;54.498;18.206;2022-08-21T16:04:51;5.20;;;1.62;;
34102;SDS011;20381;54.498;18.206;2022-08-21T16:07:17;5.80;;;1.32;;
34102;SDS011;20381;54.498;18.206;2022-08-21T16:09:45;3.95;;;1.72;;
34102;SDS011;20381;54.498;18.206;2022-08-21T16:12:13;8.55;;;1.70;;
34102;SDS011;20381;54.498;18.206;2022-08-21T16:14:47;7.90;;;2.30;;
34102;SDS011;20381;54.498;18.206;2022-08-21T16:17:15;5.62;;;2.05;;
34102;SDS011;20381;54.498;18.206;2022-08-21T16:19:42;4.47;;;1.60;;
34102;SDS011;20381;54.498;18.206;2022-08-21T16:22:08;7.35;;;2.10;;
34102;SDS011;20381;54.498;18.206;2022-08-21T16:24:35;6.80;;;2.00;;
34102;SDS011;20381;54.498;18.206;2022-08-21T16:27:02;4.20;;;1.87;;
34102;SDS011;20381;54.498;18.206;2022-08-21T16:29:33;4.78;;;1.87;;
34102;SDS011;20381;54.498;18.206;2022-08-21T16:32:01;3.77;;;1.67;;
34102;SDS011;20381;54.498;18.206;2022-08-21T16:34:29;4.60;;;1.80;;
34102;SDS011;20381;54.498;18.206;2022-08-21T16:36:55;5.53;;;2.62;;
34102;SDS011;20381;54.498;18.206;2022-08-21T16:39:22;4.67;;;2.02;;
34102;SDS011;20381;54.498;18.206;2022-08-21T16:41:49;4.65;;;2.15;;
34102;SDS011;20381;54.498;18.206;2022-08-21T16:44:16;5.30;;;2.05;;
34102;SDS011;20381;54.498;18.206;2022-08-21T16:46:45;4.70;;;1.42;;